Terminal Aerodrome Forecast
Issued by NWS Springfield, MO

Home | Current Version | Previous Version | Text Only | Print | Product List | Glossary On
Versions: 1 2 3 4 5 6 7 8 9 10 11 12 13 14 15 16 17 18 19 20 21 22
000
FTUS43 KSGF 311100
TAFSGF
TAF
KSGF 311120Z 3112/0112 VRB02KT 6SM BR SCT006 OVC080
     FM311400 14005KT P6SM SCT008 OVC060
     FM311600 15006KT P6SM SCT010 BKN050
     FM312000 VRB04KT P6SM FEW030 SCT250
      TEMPO 0108/0112 5SM BR=

USA.gov is the U.S. government's official web portal to all federal, state and local government web resources and services.